sensor_id;sensor_type;location;lat;lon;timestamp;temperature;humidity
1570;DHT22;778;50.120;8.698;2023-05-10T00:00:13;15.50;99.90
1570;DHT22;778;50.120;8.698;2023-05-10T00:02:43;15.30;99.90
1570;DHT22;778;50.120;8.698;2023-05-10T00:05:11;15.40;99.90
1570;DHT22;778;50.120;8.698;2023-05-10T00:07:41;15.40;99.90
1570;DHT22;778;50.120;8.698;2023-05-10T00:10:12;15.40;99.90
1570;DHT22;778;50.120;8.698;2023-05-10T00:12:41;15.30;99.90
1570;DHT22;778;50.120;8.698;2023-05-10T00:15:10;15.30;99.90
1570;DHT22;778;50.120;8.698;2023-05-10T00:17:38;15.10;99.90
1570;DHT22;778;50.120;8.698;2023-05-10T00:20:08;15.10;99.90
1570;DHT22;778;50.120;8.698;2023-05-10T00:22:37;15.10;99.90
1570;DHT22;778;50.120;8.698;2023-05-10T00:25:08;15.10;99.90
1570;DHT22;778;50.120;8.698;2023-05-10T00:27:37;15.10;99.90
1570;DHT22;778;50.120;8.698;2023-05-10T00:30:07;15.10;99.90
1570;DHT22;778;50.120;8.698;2023-05-10T00:32:36;15.00;99.90
1570;DHT22;778;50.120;8.698;2023-05-10T00:35:05;15.10;99.90
1570;DHT22;778;50.120;8.698;2023-05-10T00:37:33;15.10;99.90
1570;DHT22;778;50.120;8.698;2023-05-10T00:40:02;15.20;99.90
1570;DHT22;778;50.120;8.698;2023-05-10T00:42:33;15.00;99.90
1570;DHT22;778;50.120;8.698;2023-05-10T00:45:01;14.90;99.90
1570;DHT22;778;50.120;8.698;2023-05-10T00:47:30;14.90;99.90
1570;DHT22;778;50.120;8.698;2023-05-10T00:49:59;15.00;99.90
1570;DHT22;778;50.120;8.698;2023-05-10T00:52:31;14.90;99.90
1570;DHT22;778;50.120;8.698;2023-05-10T00:55:00;14.90;99.90
1570;DHT22;778;50.120;8.698;2023-05-10T00:57:29;14.90;99.90
1570;DHT22;778;50.120;8.698;2023-05-10T00:59:59;14.90;99.90
1570;DHT22;778;50.120;8.698;2023-05-10T01:02:28;15.00;99.90
1570;DHT22;778;50.120;8.698;2023-05-10T01:04:56;15.00;99.90
1570;DHT22;778;50.120;8.698;2023-05-10T01:07:25;14.90;99.90
1570;DHT22;778;50.120;8.698;2023-05-10T01:09:53;14.90;99.90
1570;DHT22;778;50.120;8.698;2023-05-10T01:12:21;14.90;99.90
1570;DHT22;778;50.120;8.698;2023-05-10T01:14:50;14.90;99.90
1570;DHT22;778;50.120;8.698;2023-05-10T01:17:20;14.90;99.90
1570;DHT22;778;50.120;8.698;2023-05-10T01:19:50;14.80;99.90
1570;DHT22;778;50.120;8.698;2023-05-10T01:22:39;14.90;99.90
1570;DHT22;778;50.120;8.698;2023-05-10T01:25:31;14.70;99.90
1570;DHT22;778;50.120;8.698;2023-05-10T01:31:40;14.80;99.90
1570;DHT22;778;50.120;8.698;2023-05-10T01:34:35;14.80;99.90
1570;DHT22;778;50.120;8.698;2023-05-10T01:37:09;14.70;99.90
1570;DHT22;778;50.120;8.698;2023-05-10T01:39:44;14.70;99.90
1570;DHT22;778;50.120;8.698;2023-05-10T01:42:20;14.70;99.90
1570;DHT22;778;50.120;8.698;2023-05-10T01:44:58;14.50;99.90
1570;DHT22;778;50.120;8.698;2023-05-10T01:47:34;14.50;99.90
1570;DHT22;778;50.120;8.698;2023-05-10T01:50:15;14.60;99.90
1570;DHT22;778;50.120;8.698;2023-05-10T01:52:50;14.60;99.90
1570;DHT22;778;50.120;8.698;2023-05-10T01:55:21;14.50;99.90
1570;DHT22;778;50.120;8.698;2023-05-10T01:57:57;14.70;99.90
1570;DHT22;778;50.120;8.698;2023-05-10T02:00:31;14.60;99.90
1570;DHT22;778;50.120;8.698;2023-05-10T02:03:04;14.70;99.90
1570;DHT22;778;50.120;8.698;2023-05-10T02:05:36;14.70;99.90
1570;DHT22;778;50.120;8.698;2023-05-10T02:08:06;14.60;99.90
1570;DHT22;778;50.120;8.698;2023-05-10T02:10:36;14.50;99.90
1570;DHT22;778;50.120;8.698;2023-05-10T02:13:07;14.50;99.90
1570;DHT22;778;50.120;8.698;2023-05-10T02:15:37;14.50;99.90
1570;DHT22;778;50.120;8.698;2023-05-10T02:18:08;14.50;99.90
1570;DHT22;778;50.120;8.698;2023-05-10T02:20:39;14.50;99.90
1570;DHT22;778;50.120;8.698;2023-05-10T02:23:08;14.50;99.90
1570;DHT22;778;50.120;8.698;2023-05-10T02:25:38;14.50;99.90
1570;DHT22;778;50.120;8.698;2023-05-10T02:28:07;14.60;99.90
1570;DHT22;778;50.120;8.698;2023-05-10T02:30:36;14.50;99.90
1570;DHT22;778;50.120;8.698;2023-05-10T02:33:06;14.50;99.90
1570;DHT22;778;50.120;8.698;2023-05-10T02:35:35;14.50;99.90
1570;DHT22;778;50.120;8.698;2023-05-10T02:38:06;14.60;99.90
1570;DHT22;778;50.120;8.698;2023-05-10T02:40:36;14.60;99.90
1570;DHT22;778;50.120;8.698;2023-05-10T02:43:06;14.60;99.90
1570;DHT22;778;50.120;8.698;2023-05-10T02:45:38;14.60;99.90
1570;DHT22;778;50.120;8.698;2023-05-10T02:48:09;14.50;99.90
1570;DHT22;778;50.120;8.698;2023-05-10T02:50:38;14.50;99.90
1570;DHT22;778;50.120;8.698;2023-05-10T02:53:15;14.50;99.90
1570;DHT22;778;50.120;8.698;2023-05-10T02:55:50;14.40;99.90
1570;DHT22;778;50.120;8.698;2023-05-10T02:58:20;14.40;99.90
1570;DHT22;778;50.120;8.698;2023-05-10T03:00:50;14.30;99.90
1570;DHT22;778;50.120;8.698;2023-05-10T03:03:19;14.40;99.90
1570;DHT22;778;50.120;8.698;2023-05-10T03:05:49;14.40;99.90
1570;DHT22;778;50.120;8.698;2023-05-10T03:08:22;14.30;99.90
1570;DHT22;778;50.120;8.698;2023-05-10T03:10:59;14.30;99.90
1570;DHT22;778;50.120;8.698;2023-05-10T03:13:39;14.30;99.90
1570;DHT22;778;50.120;8.698;2023-05-10T03:16:15;14.30;99.90
1570;DHT22;778;50.120;8.698;2023-05-10T03:18:50;14.20;99.90
1570;DHT22;778;50.120;8.698;2023-05-10T03:21:22;14.30;99.90
1570;DHT22;778;50.120;8.698;2023-05-10T03:23:59;14.30;99.90
1570;DHT22;778;50.120;8.698;2023-05-10T03:26:36;14.30;99.90
1570;DHT22;778;50.120;8.698;2023-05-10T03:29:10;14.30;99.90
1570;DHT22;778;50.120;8.698;2023-05-10T03:31:40;14.30;99.90
1570;DHT22;778;50.120;8.698;2023-05-10T03:34:09;14.20;99.90
1570;DHT22;778;50.120;8.698;2023-05-10T03:36:38;14.20;99.90
1570;DHT22;778;50.120;8.698;2023-05-10T03:39:07;14.30;99.90
1570;DHT22;778;50.120;8.698;2023-05-10T03:41:37;14.30;99.90
1570;DHT22;778;50.120;8.698;2023-05-10T03:44:05;14.30;99.90
1570;DHT22;778;50.120;8.698;2023-05-10T03:46:34;14.30;99.90
1570;DHT22;778;50.120;8.698;2023-05-10T03:49:02;14.30;99.90
1570;DHT22;778;50.120;8.698;2023-05-10T03:51:31;14.30;99.90
1570;DHT22;778;50.120;8.698;2023-05-10T03:53:59;14.40;99.90
1570;DHT22;778;50.120;8.698;2023-05-10T03:56:29;14.40;99.90
1570;DHT22;778;50.120;8.698;2023-05-10T03:58:59;14.40;99.90
1570;DHT22;778;50.120;8.698;2023-05-10T04:01:30;14.40;99.90
1570;DHT22;778;50.120;8.698;2023-05-10T04:03:58;14.40;99.90
1570;DHT22;778;50.120;8.698;2023-05-10T04:06:27;14.40;99.90
1570;DHT22;778;50.120;8.698;2023-05-10T04:08:55;14.30;99.90
1570;DHT22;778;50.120;8.698;2023-05-10T04:11:26;14.20;99.90
1570;DHT22;778;50.120;8.698;2023-05-10T04:13:56;14.30;99.90
1570;DHT22;778;50.120;8.698;2023-05-10T04:16:25;14.20;99.90
1570;DHT22;778;50.120;8.698;2023-05-10T04:18:53;14.30;99.90
1570;DHT22;778;50.120;8.698;2023-05-10T04:21:22;14.30;99.90
1570;DHT22;778;50.120;8.698;2023-05-10T04:23:50;14.20;99.90
1570;DHT22;778;50.120;8.698;2023-05-10T04:26:19;14.30;99.90
1570;DHT22;778;50.120;8.698;2023-05-10T04:28:47;14.20;99.90
1570;DHT22;778;50.120;8.698;2023-05-10T04:31:17;14.20;99.90
1570;DHT22;778;50.120;8.698;2023-05-10T04:33:45;14.20;99.90
1570;DHT22;778;50.120;8.698;2023-05-10T04:36:14;14.30;99.90
1570;DHT22;778;50.120;8.698;2023-05-10T04:38:42;14.40;99.90
1570;DHT22;778;50.120;8.698;2023-05-10T04:41:11;14.40;99.90
1570;DHT22;778;50.120;8.698;2023-05-10T04:43:39;14.40;99.90
1570;DHT22;778;50.120;8.698;2023-05-10T04:46:07;14.50;99.90
1570;DHT22;778;50.120;8.698;2023-05-10T04:48:37;14.50;99.90
1570;DHT22;778;50.120;8.698;2023-05-10T04:51:06;14.60;99.90
1570;DHT22;778;50.120;8.698;2023-05-10T04:53:34;14.50;99.90
1570;DHT22;778;50.120;8.698;2023-05-10T04:56:03;14.50;99.90
1570;DHT22;778;50.120;8.698;2023-05-10T04:58:31;14.50;99.90
1570;DHT22;778;50.120;8.698;2023-05-10T05:01:05;14.50;99.90
1570;DHT22;778;50.120;8.698;2023-05-10T05:03:35;14.60;99.90
1570;DHT22;778;50.120;8.698;2023-05-10T05:06:05;14.50;99.90
1570;DHT22;778;50.120;8.698;2023-05-10T05:08:34;14.60;99.90
1570;DHT22;778;50.120;8.698;2023-05-10T05:11:02;14.50;99.90
1570;DHT22;778;50.120;8.698;2023-05-10T05:13:31;14.60;99.90
1570;DHT22;778;50.120;8.698;2023-05-10T05:16:00;14.50;99.90
1570;DHT22;778;50.120;8.698;2023-05-10T05:18:29;14.60;99.90
1570;DHT22;778;50.120;8.698;2023-05-10T05:20:59;14.60;99.90
1570;DHT22;778;50.120;8.698;2023-05-10T05:23:27;14.70;99.90
1570;DHT22;778;50.120;8.698;2023-05-10T05:25:57;14.60;99.90
1570;DHT22;778;50.120;8.698;2023-05-10T05:28:25;14.60;99.90
1570;DHT22;778;50.120;8.698;2023-05-10T05:30:55;14.60;99.90
1570;DHT22;778;50.120;8.698;2023-05-10T05:33:23;14.70;99.90
1570;DHT22;778;50.120;8.698;2023-05-10T05:35:51;14.70;99.90
1570;DHT22;778;50.120;8.698;2023-05-10T05:38:21;14.70;99.90
1570;DHT22;778;50.120;8.698;2023-05-10T05:40:50;14.60;99.90
1570;DHT22;778;50.120;8.698;2023-05-10T05:43:18;14.70;99.90
1570;DHT22;778;50.120;8.698;2023-05-10T05:45:47;14.70;99.90
1570;DHT22;778;50.120;8.698;2023-05-10T05:48:15;14.70;99.90
1570;DHT22;778;50.120;8.698;2023-05-10T05:50:44;14.70;99.90
1570;DHT22;778;50.120;8.698;2023-05-10T05:53:12;14.70;99.90
1570;DHT22;778;50.120;8.698;2023-05-10T05:55:51;14.70;99.90
1570;DHT22;778;50.120;8.698;2023-05-10T05:58:20;14.70;99.90
1570;DHT22;778;50.120;8.698;2023-05-10T06:00:49;14.70;99.90
1570;DHT22;778;50.120;8.698;2023-05-10T06:03:19;14.70;99.90
1570;DHT22;778;50.120;8.698;2023-05-10T06:05:48;14.70;99.90
1570;DHT22;778;50.120;8.698;2023-05-10T06:08:16;14.80;99.90
1570;DHT22;778;50.120;8.698;2023-05-10T06:10:46;14.80;99.90
1570;DHT22;778;50.120;8.698;2023-05-10T06:13:14;14.80;99.90
1570;DHT22;778;50.120;8.698;2023-05-10T06:15:43;14.80;99.90
1570;DHT22;778;50.120;8.698;2023-05-10T06:18:12;14.90;99.90
1570;DHT22;778;50.120;8.698;2023-05-10T06:20:41;15.00;99.90
1570;DHT22;778;50.120;8.698;2023-05-10T06:23:10;15.00;99.90
1570;DHT22;778;50.120;8.698;2023-05-10T06:25:38;14.90;99.90
1570;DHT22;778;50.120;8.698;2023-05-10T06:28:08;14.90;99.90
1570;DHT22;778;50.120;8.698;2023-05-10T06:30:36;14.90;99.90
1570;DHT22;778;50.120;8.698;2023-05-10T06:33:05;14.80;99.90
1570;DHT22;778;50.120;8.698;2023-05-10T06:35:33;14.80;99.90
1570;DHT22;778;50.120;8.698;2023-05-10T06:38:02;14.90;99.90
1570;DHT22;778;50.120;8.698;2023-05-10T06:40:30;15.00;99.90
1570;DHT22;778;50.120;8.698;2023-05-10T06:42:59;15.00;99.90
1570;DHT22;778;50.120;8.698;2023-05-10T06:45:29;15.00;99.90
1570;DHT22;778;50.120;8.698;2023-05-10T06:47:57;15.00;99.90
1570;DHT22;778;50.120;8.698;2023-05-10T06:50:26;15.00;99.90
1570;DHT22;778;50.120;8.698;2023-05-10T06:52:55;15.20;99.90
1570;DHT22;778;50.120;8.698;2023-05-10T06:55:23;15.10;99.90
1570;DHT22;778;50.120;8.698;2023-05-10T06:57:52;15.30;99.90
1570;DHT22;778;50.120;8.698;2023-05-10T07:00:20;15.30;99.90
1570;DHT22;778;50.120;8.698;2023-05-10T07:02:50;15.40;99.90
1570;DHT22;778;50.120;8.698;2023-05-10T07:05:19;15.40;99.90
1570;DHT22;778;50.120;8.698;2023-05-10T07:07:48;15.40;99.90
1570;DHT22;778;50.120;8.698;2023-05-10T07:10:17;15.50;99.90
1570;DHT22;778;50.120;8.698;2023-05-10T07:12:45;15.50;99.90
1570;DHT22;778;50.120;8.698;2023-05-10T07:15:14;15.60;99.90
1570;DHT22;778;50.120;8.698;2023-05-10T07:17:43;15.70;99.90
1570;DHT22;778;50.120;8.698;2023-05-10T07:20:14;15.70;99.90
1570;DHT22;778;50.120;8.698;2023-05-10T07:22:42;15.70;99.90
1570;DHT22;778;50.120;8.698;2023-05-10T07:25:11;15.80;99.90
1570;DHT22;778;50.120;8.698;2023-05-10T07:27:39;15.80;99.90
1570;DHT22;778;50.120;8.698;2023-05-10T07:30:08;15.70;99.90
1570;DHT22;778;50.120;8.698;2023-05-10T07:32:37;15.80;99.90
1570;DHT22;778;50.120;8.698;2023-05-10T07:35:08;15.80;99.90
1570;DHT22;778;50.120;8.698;2023-05-10T07:37:38;15.80;99.90
1570;DHT22;778;50.120;8.698;2023-05-10T07:40:08;15.90;99.90
1570;DHT22;778;50.120;8.698;2023-05-10T07:42:37;15.90;99.90
1570;DHT22;778;50.120;8.698;2023-05-10T07:45:06;16.00;99.90
1570;DHT22;778;50.120;8.698;2023-05-10T07:47:35;16.00;99.90
1570;DHT22;778;50.120;8.698;2023-05-10T07:50:05;16.00;99.90
1570;DHT22;778;50.120;8.698;2023-05-10T07:52:35;16.00;99.90
1570;DHT22;778;50.120;8.698;2023-05-10T07:55:07;16.00;99.90
1570;DHT22;778;50.120;8.698;2023-05-10T07:57:37;16.00;99.90
1570;DHT22;778;50.120;8.698;2023-05-10T08:00:07;15.90;99.90
1570;DHT22;778;50.120;8.698;2023-05-10T08:02:39;15.90;99.90
1570;DHT22;778;50.120;8.698;2023-05-10T08:05:09;16.10;99.90
1570;DHT22;778;50.120;8.698;2023-05-10T08:07:37;16.30;99.90
1570;DHT22;778;50.120;8.698;2023-05-10T08:10:09;16.40;99.90
1570;DHT22;778;50.120;8.698;2023-05-10T08:12:38;16.40;99.90
1570;DHT22;778;50.120;8.698;2023-05-10T08:15:08;16.50;99.90
1570;DHT22;778;50.120;8.698;2023-05-10T08:17:38;16.50;99.90
1570;DHT22;778;50.120;8.698;2023-05-10T08:20:07;16.70;99.90
1570;DHT22;778;50.120;8.698;2023-05-10T08:22:36;16.80;99.90
1570;DHT22;778;50.120;8.698;2023-05-10T08:25:07;16.90;99.90
1570;DHT22;778;50.120;8.698;2023-05-10T08:27:35;17.10;99.90
1570;DHT22;778;50.120;8.698;2023-05-10T08:30:05;17.20;99.90
1570;DHT22;778;50.120;8.698;2023-05-10T08:32:34;17.30;99.90
1570;DHT22;778;50.120;8.698;2023-05-10T08:35:05;17.30;99.90
1570;DHT22;778;50.120;8.698;2023-05-10T08:37:34;17.30;99.90
1570;DHT22;778;50.120;8.698;2023-05-10T08:40:02;17.30;99.90
1570;DHT22;778;50.120;8.698;2023-05-10T08:42:34;17.30;99.90
1570;DHT22;778;50.120;8.698;2023-05-10T08:45:07;17.30;99.90
1570;DHT22;778;50.120;8.698;2023-05-10T08:47:36;17.40;99.90
1570;DHT22;778;50.120;8.698;2023-05-10T08:50:06;17.40;99.90
1570;DHT22;778;50.120;8.698;2023-05-10T08:52:38;17.40;99.90
1570;DHT22;778;50.120;8.698;2023-05-10T08:55:08;17.20;99.90
1570;DHT22;778;50.120;8.698;2023-05-10T08:57:38;17.30;99.90
1570;DHT22;778;50.120;8.698;2023-05-10T09:00:08;17.30;99.90
1570;DHT22;778;50.120;8.698;2023-05-10T09:02:37;17.30;99.90
1570;DHT22;778;50.120;8.698;2023-05-10T09:05:07;17.40;99.90
1570;DHT22;778;50.120;8.698;2023-05-10T09:07:37;17.40;99.90
1570;DHT22;778;50.120;8.698;2023-05-10T09:10:07;17.40;99.90
1570;DHT22;778;50.120;8.698;2023-05-10T09:12:38;17.40;99.90
1570;DHT22;778;50.120;8.698;2023-05-10T09:15:07;17.20;99.90
1570;DHT22;778;50.120;8.698;2023-05-10T09:17:38;17.20;99.90
1570;DHT22;778;50.120;8.698;2023-05-10T09:20:08;17.20;99.90
1570;DHT22;778;50.120;8.698;2023-05-10T09:22:37;17.20;99.90
1570;DHT22;778;50.120;8.698;2023-05-10T09:25:06;17.10;99.90
1570;DHT22;778;50.120;8.698;2023-05-10T09:27:39;17.00;99.90
1570;DHT22;778;50.120;8.698;2023-05-10T09:30:09;17.00;99.90
1570;DHT22;778;50.120;8.698;2023-05-10T09:32:39;17.00;99.90
1570;DHT22;778;50.120;8.698;2023-05-10T09:35:09;17.00;99.90
1570;DHT22;778;50.120;8.698;2023-05-10T09:37:40;16.90;99.90
1570;DHT22;778;50.120;8.698;2023-05-10T09:40:12;17.00;99.90
1570;DHT22;778;50.120;8.698;2023-05-10T09:42:51;17.00;99.90
1570;DHT22;778;50.120;8.698;2023-05-10T09:45:22;16.90;99.90
1570;DHT22;778;50.120;8.698;2023-05-10T09:47:51;16.80;99.90
1570;DHT22;778;50.120;8.698;2023-05-10T09:50:20;16.80;99.90
1570;DHT22;778;50.120;8.698;2023-05-10T09:52:51;16.70;99.90
1570;DHT22;778;50.120;8.698;2023-05-10T09:55:22;16.70;99.90
1570;DHT22;778;50.120;8.698;2023-05-10T09:58:00;16.80;99.90
1570;DHT22;778;50.120;8.698;2023-05-10T10:00:35;17.00;99.90
1570;DHT22;778;50.120;8.698;2023-05-10T10:03:04;17.50;99.90
1570;DHT22;778;50.120;8.698;2023-05-10T10:05:34;18.00;99.90
1570;DHT22;778;50.120;8.698;2023-05-10T10:08:05;18.20;99.90
1570;DHT22;778;50.120;8.698;2023-05-10T10:10:34;18.20;99.90
1570;DHT22;778;50.120;8.698;2023-05-10T10:13:03;18.10;99.90
1570;DHT22;778;50.120;8.698;2023-05-10T10:15:33;17.90;99.90
1570;DHT22;778;50.120;8.698;2023-05-10T10:18:03;17.80;99.90
1570;DHT22;778;50.120;8.698;2023-05-10T10:20:32;17.30;99.90
1570;DHT22;778;50.120;8.698;2023-05-10T10:23:00;17.20;99.90
1570;DHT22;778;50.120;8.698;2023-05-10T10:25:30;17.20;99.90
1570;DHT22;778;50.120;8.698;2023-05-10T10:28:10;17.00;99.90
1570;DHT22;778;50.120;8.698;2023-05-10T10:30:48;17.00;99.90
1570;DHT22;778;50.120;8.698;2023-05-10T10:33:38;16.90;99.90
1570;DHT22;778;50.120;8.698;2023-05-10T10:36:15;17.00;99.90
1570;DHT22;778;50.120;8.698;2023-05-10T10:38:57;17.10;99.90
1570;DHT22;778;50.120;8.698;2023-05-10T10:41:32;17.00;99.90
1570;DHT22;778;50.120;8.698;2023-05-10T10:44:26;17.10;99.90
1570;DHT22;778;50.120;8.698;2023-05-10T10:47:03;17.20;99.90
1570;DHT22;778;50.120;8.698;2023-05-10T10:49:43;17.20;99.90
1570;DHT22;778;50.120;8.698;2023-05-10T10:52:15;16.90;99.90
1570;DHT22;778;50.120;8.698;2023-05-10T10:55:00;16.90;99.90
1570;DHT22;778;50.120;8.698;2023-05-10T10:57:43;16.90;99.90
1570;DHT22;778;50.120;8.698;2023-05-10T11:00:26;17.00;99.90
1570;DHT22;778;50.120;8.698;2023-05-10T11:02:58;16.90;99.90
1570;DHT22;778;50.120;8.698;2023-05-10T11:05:38;16.80;99.90
1570;DHT22;778;50.120;8.698;2023-05-10T11:08:12;16.80;99.90
1570;DHT22;778;50.120;8.698;2023-05-10T11:10:51;16.70;99.90
1570;DHT22;778;50.120;8.698;2023-05-10T11:13:28;16.70;99.90
1570;DHT22;778;50.120;8.698;2023-05-10T11:15:59;16.90;99.90
1570;DHT22;778;50.120;8.698;2023-05-10T11:18:38;17.00;99.90
1570;DHT22;778;50.120;8.698;2023-05-10T11:21:09;17.20;99.90
1570;DHT22;778;50.120;8.698;2023-05-10T11:23:53;17.20;99.90
1570;DHT22;778;50.120;8.698;2023-05-10T11:26:25;17.30;99.90
1570;DHT22;778;50.120;8.698;2023-05-10T11:28:56;17.40;99.90
1570;DHT22;778;50.120;8.698;2023-05-10T11:31:27;17.40;99.90
1570;DHT22;778;50.120;8.698;2023-05-10T11:33:58;17.50;99.90
1570;DHT22;778;50.120;8.698;2023-05-10T11:36:29;17.50;99.90
1570;DHT22;778;50.120;8.698;2023-05-10T11:39:01;17.60;99.90
1570;DHT22;778;50.120;8.698;2023-05-10T11:41:30;17.60;99.90
1570;DHT22;778;50.120;8.698;2023-05-10T11:43:59;17.70;99.90
1570;DHT22;778;50.120;8.698;2023-05-10T11:46:29;17.80;99.90
1570;DHT22;778;50.120;8.698;2023-05-10T11:48:58;17.80;99.90
1570;DHT22;778;50.120;8.698;2023-05-10T11:51:33;17.70;99.90
1570;DHT22;778;50.120;8.698;2023-05-10T11:54:08;17.50;99.90
1570;DHT22;778;50.120;8.698;2023-05-10T11:56:38;17.50;99.90
1570;DHT22;778;50.120;8.698;2023-05-10T11:59:07;17.30;99.90
1570;DHT22;778;50.120;8.698;2023-05-10T12:01:40;17.30;99.90
1570;DHT22;778;50.120;8.698;2023-05-10T12:04:21;17.20;99.90
1570;DHT22;778;50.120;8.698;2023-05-10T12:06:52;17.20;99.90
1570;DHT22;778;50.120;8.698;2023-05-10T12:09:24;17.00;99.90
1570;DHT22;778;50.120;8.698;2023-05-10T12:12:06;16.90;99.90
1570;DHT22;778;50.120;8.698;2023-05-10T12:14:35;16.90;99.90
1570;DHT22;778;50.120;8.698;2023-05-10T12:17:05;16.90;99.90
1570;DHT22;778;50.120;8.698;2023-05-10T12:19:40;16.80;99.90
1570;DHT22;778;50.120;8.698;2023-05-10T12:22:10;16.90;99.90
1570;DHT22;778;50.120;8.698;2023-05-10T12:24:38;16.90;99.90
1570;DHT22;778;50.120;8.698;2023-05-10T12:27:08;17.00;99.90
1570;DHT22;778;50.120;8.698;2023-05-10T12:29:36;17.20;99.90
1570;DHT22;778;50.120;8.698;2023-05-10T12:32:14;17.40;99.90
1570;DHT22;778;50.120;8.698;2023-05-10T12:34:43;17.60;99.90
1570;DHT22;778;50.120;8.698;2023-05-10T12:37:17;17.90;99.90
1570;DHT22;778;50.120;8.698;2023-05-10T12:39:45;18.10;99.90
1570;DHT22;778;50.120;8.698;2023-05-10T12:42:14;18.30;99.90
1570;DHT22;778;50.120;8.698;2023-05-10T12:44:42;18.50;99.90
1570;DHT22;778;50.120;8.698;2023-05-10T12:47:11;18.60;99.90
1570;DHT22;778;50.120;8.698;2023-05-10T12:49:40;18.80;99.90
1570;DHT22;778;50.120;8.698;2023-05-10T12:52:09;18.90;99.90
1570;DHT22;778;50.120;8.698;2023-05-10T12:54:37;18.90;99.90
1570;DHT22;778;50.120;8.698;2023-05-10T12:57:06;19.00;99.90
1570;DHT22;778;50.120;8.698;2023-05-10T12:59:34;19.00;99.90
1570;DHT22;778;50.120;8.698;2023-05-10T13:02:04;19.00;99.90
1570;DHT22;778;50.120;8.698;2023-05-10T13:04:32;19.00;99.90
1570;DHT22;778;50.120;8.698;2023-05-10T13:07:02;19.10;99.90
1570;DHT22;778;50.120;8.698;2023-05-10T13:09:30;19.20;99.90
1570;DHT22;778;50.120;8.698;2023-05-10T13:11:59;19.20;99.90
1570;DHT22;778;50.120;8.698;2023-05-10T13:14:29;19.00;99.90
1570;DHT22;778;50.120;8.698;2023-05-10T13:16:58;19.00;99.90
1570;DHT22;778;50.120;8.698;2023-05-10T13:19:26;19.00;99.90
1570;DHT22;778;50.120;8.698;2023-05-10T13:21:55;19.20;99.90
1570;DHT22;778;50.120;8.698;2023-05-10T13:24:24;19.20;99.90
1570;DHT22;778;50.120;8.698;2023-05-10T13:26:53;19.20;99.90
1570;DHT22;778;50.120;8.698;2023-05-10T13:29:21;19.00;99.90
1570;DHT22;778;50.120;8.698;2023-05-10T13:31:49;19.00;99.90
1570;DHT22;778;50.120;8.698;2023-05-10T13:34:18;19.00;99.90
1570;DHT22;778;50.120;8.698;2023-05-10T13:36:48;19.00;99.90
1570;DHT22;778;50.120;8.698;2023-05-10T13:39:16;18.90;99.90
1570;DHT22;778;50.120;8.698;2023-05-10T13:41:46;18.90;99.90
1570;DHT22;778;50.120;8.698;2023-05-10T13:44:15;18.80;99.90
1570;DHT22;778;50.120;8.698;2023-05-10T13:46:43;18.70;99.90
1570;DHT22;778;50.120;8.698;2023-05-10T13:49:12;18.90;99.90
1570;DHT22;778;50.120;8.698;2023-05-10T13:51:40;19.00;99.90
1570;DHT22;778;50.120;8.698;2023-05-10T13:54:08;19.10;99.90
1570;DHT22;778;50.120;8.698;2023-05-10T13:56:39;19.20;99.90
1570;DHT22;778;50.120;8.698;2023-05-10T13:59:10;19.20;99.90
1570;DHT22;778;50.120;8.698;2023-05-10T14:01:39;19.20;99.90
1570;DHT22;778;50.120;8.698;2023-05-10T14:04:07;19.30;99.90
1570;DHT22;778;50.120;8.698;2023-05-10T14:06:37;19.40;99.90
1570;DHT22;778;50.120;8.698;2023-05-10T14:09:05;19.50;99.90
1570;DHT22;778;50.120;8.698;2023-05-10T14:11:34;19.50;99.90
1570;DHT22;778;50.120;8.698;2023-05-10T14:14:02;19.40;99.90
1570;DHT22;778;50.120;8.698;2023-05-10T14:16:32;19.40;99.90
1570;DHT22;778;50.120;8.698;2023-05-10T14:19:01;19.40;99.90
1570;DHT22;778;50.120;8.698;2023-05-10T14:21:30;19.30;99.90
1570;DHT22;778;50.120;8.698;2023-05-10T14:23:58;19.20;99.90
1570;DHT22;778;50.120;8.698;2023-05-10T14:26:26;19.20;99.90
1570;DHT22;778;50.120;8.698;2023-05-10T14:28:55;19.20;99.90
1570;DHT22;778;50.120;8.698;2023-05-10T14:31:23;19.10;99.90
1570;DHT22;778;50.120;8.698;2023-05-10T14:33:54;19.00;99.90
1570;DHT22;778;50.120;8.698;2023-05-10T14:36:22;19.10;99.90
1570;DHT22;778;50.120;8.698;2023-05-10T14:38:50;19.00;99.90
1570;DHT22;778;50.120;8.698;2023-05-10T14:41:19;19.30;99.90
1570;DHT22;778;50.120;8.698;2023-05-10T14:43:47;19.20;99.90
1570;DHT22;778;50.120;8.698;2023-05-10T14:46:16;19.10;99.90
1570;DHT22;778;50.120;8.698;2023-05-10T14:48:44;19.20;99.90
1570;DHT22;778;50.120;8.698;2023-05-10T14:51:14;19.10;99.90
1570;DHT22;778;50.120;8.698;2023-05-10T14:53:43;19.20;99.90
1570;DHT22;778;50.120;8.698;2023-05-10T14:56:12;19.30;99.90
1570;DHT22;778;50.120;8.698;2023-05-10T14:58:40;19.30;99.90
1570;DHT22;778;50.120;8.698;2023-05-10T15:01:09;19.20;99.90
1570;DHT22;778;50.120;8.698;2023-05-10T15:03:38;19.20;99.90
1570;DHT22;778;50.120;8.698;2023-05-10T15:06:08;19.10;99.90
1570;DHT22;778;50.120;8.698;2023-05-10T15:08:38;19.20;99.90
1570;DHT22;778;50.120;8.698;2023-05-10T15:11:07;19.30;99.90
1570;DHT22;778;50.120;8.698;2023-05-10T15:13:35;19.30;99.90
1570;DHT22;778;50.120;8.698;2023-05-10T15:16:04;19.30;99.90
1570;DHT22;778;50.120;8.698;2023-05-10T15:18:32;19.20;99.90
1570;DHT22;778;50.120;8.698;2023-05-10T15:21:01;19.10;99.90
1570;DHT22;778;50.120;8.698;2023-05-10T15:23:30;19.10;99.90
1570;DHT22;778;50.120;8.698;2023-05-10T15:26:00;19.00;99.90
1570;DHT22;778;50.120;8.698;2023-05-10T15:28:29;19.20;99.90
1570;DHT22;778;50.120;8.698;2023-05-10T15:31:00;19.20;99.90
1570;DHT22;778;50.120;8.698;2023-05-10T15:33:28;19.20;99.90
1570;DHT22;778;50.120;8.698;2023-05-10T15:35:56;19.20;99.90
1570;DHT22;778;50.120;8.698;2023-05-10T15:38:25;19.30;99.90
1570;DHT22;778;50.120;8.698;2023-05-10T15:40:56;19.30;99.90
1570;DHT22;778;50.120;8.698;2023-05-10T15:43:26;19.10;99.90
1570;DHT22;778;50.120;8.698;2023-05-10T15:45:55;19.10;99.90
1570;DHT22;778;50.120;8.698;2023-05-10T15:48:23;19.00;99.90
1570;DHT22;778;50.120;8.698;2023-05-10T15:50:52;19.10;99.90
1570;DHT22;778;50.120;8.698;2023-05-10T15:53:20;19.10;99.90
1570;DHT22;778;50.120;8.698;2023-05-10T15:55:48;19.10;99.90
1570;DHT22;778;50.120;8.698;2023-05-10T15:58:19;19.10;99.90
1570;DHT22;778;50.120;8.698;2023-05-10T16:00:49;19.00;99.90
1570;DHT22;778;50.120;8.698;2023-05-10T16:03:18;19.00;99.90
1570;DHT22;778;50.120;8.698;2023-05-10T16:05:48;19.00;99.90
1570;DHT22;778;50.120;8.698;2023-05-10T16:08:16;18.90;99.90
1570;DHT22;778;50.120;8.698;2023-05-10T16:10:45;18.90;99.90
1570;DHT22;778;50.120;8.698;2023-05-10T16:13:13;18.80;99.90
1570;DHT22;778;50.120;8.698;2023-05-10T16:15:42;18.80;99.90
1570;DHT22;778;50.120;8.698;2023-05-10T16:18:12;18.80;99.90
1570;DHT22;778;50.120;8.698;2023-05-10T16:20:43;18.80;99.90
1570;DHT22;778;50.120;8.698;2023-05-10T16:23:12;18.80;99.90
1570;DHT22;778;50.120;8.698;2023-05-10T16:25:41;18.70;99.90
1570;DHT22;778;50.120;8.698;2023-05-10T16:28:09;18.60;99.90
1570;DHT22;778;50.120;8.698;2023-05-10T16:30:37;18.60;99.90
1570;DHT22;778;50.120;8.698;2023-05-10T16:33:06;18.60;99.90
1570;DHT22;778;50.120;8.698;2023-05-10T16:35:36;18.70;99.90
1570;DHT22;778;50.120;8.698;2023-05-10T16:38:04;18.70;99.90
1570;DHT22;778;50.120;8.698;2023-05-10T16:40:33;18.70;99.90